Time;durP1;ratioP1;P1;durP2;ratioP2;P2;SDS_P1;SDS_P2;PMS_P1;PMS_P2;Temp;Humidity;BMP_temperature;BMP_pressure;BME280_temperature;BME280_humidity;BME280_pressure;Samples;Min_cycle;Max_cycle;Signal;HPM_P1;HPM_P2
2022/06/11 00:00:10;;;;;;;5.82;3.42;;;22.30;85.20;;;;;;5091997;28;20043;-67
2022/06/11 00:03:14;;;;;;;7.15;3.35;;;22.30;85.30;;;;;;5092038;28;20388;-67
2022/06/11 00:06:20;;;;;;;7.88;3.63;;;22.20;85.70;;;;;;5091929;28;20035;-67
2022/06/11 00:09:24;;;;;;;8.82;3.28;;;22.10;86.10;;;;;;5091540;28;20043;-67
2022/06/11 00:12:28;;;;;;;11.70;3.72;;;22.00;86.40;;;;;;5091973;28;20050;-67
2022/06/11 00:15:33;;;;;;;12.40;6.65;;;21.90;86.70;;;;;;5091506;28;20045;-67
2022/06/11 00:18:41;;;;;;;13.70;4.05;;;21.90;87.30;;;;;;5092024;28;20055;-67
2022/06/11 00:21:47;;;;;;;7.35;3.80;;;21.80;87.30;;;;;;5091784;28;20046;-67
2022/06/11 00:24:52;;;;;;;8.50;3.92;;;21.90;87.60;;;;;;5090720;28;20043;-67
2022/06/11 00:27:56;;;;;;;9.85;3.70;;;21.90;87.50;;;;;;5091371;28;20503;-67
2022/06/11 00:31:00;;;;;;;17.27;3.83;;;21.90;86.70;;;;;;5091799;28;20039;-67
2022/06/11 00:34:04;;;;;;;5.90;3.42;;;21.80;87.30;;;;;;5091748;28;20495;-67
2022/06/11 00:37:09;;;;;;;8.27;3.47;;;21.80;87.30;;;;;;5091333;28;20043;-67
2022/06/11 00:40:22;;;;;;;8.90;3.47;;;21.80;87.00;;;;;;5091553;28;20047;-67
2022/06/11 00:43:30;;;;;;;14.00;3.78;;;21.70;86.60;;;;;;5090533;28;20388;-67
2022/06/11 00:46:55;;;;;;;10.25;4.05;;;21.70;87.20;;;;;;5090913;28;20047;-67
2022/06/11 00:50:00;;;;;;;13.85;3.58;;;21.70;86.60;;;;;;5090915;28;20047;-67
2022/06/11 00:53:18;;;;;;;6.65;3.67;;;21.60;87.20;;;;;;5091157;28;20055;-67
2022/06/11 00:56:49;;;;;;;10.10;4.15;;;21.60;87.10;;;;;;5090877;28;20055;-67
2022/06/11 00:59:58;;;;;;;7.63;3.92;;;21.50;87.30;;;;;;5091016;28;20047;-67
2022/06/11 01:03:02;;;;;;;6.78;3.47;;;21.50;87.50;;;;;;5091443;28;20058;-67
2022/06/11 01:06:42;;;;;;;7.47;3.80;;;21.60;87.50;;;;;;5091237;28;20043;-67
2022/06/11 01:10:29;;;;;;;9.98;3.70;;;21.60;87.10;;;;;;5090338;28;20059;-67
2022/06/11 01:13:51;;;;;;;11.20;3.45;;;21.60;86.80;;;;;;5091224;28;20043;-67
2022/06/11 01:17:25;;;;;;;7.10;3.50;;;21.60;87.30;;;;;;5091136;28;20047;-67
2022/06/11 01:20:45;;;;;;;7.82;3.90;;;21.60;87.30;;;;;;5094925;28;20043;-67
2022/06/11 01:24:13;;;;;;;6.45;3.60;;;21.60;87.80;;;;;;5095113;28;20430;-67
2022/06/11 01:27:46;;;;;;;9.27;3.97;;;21.50;87.70;;;;;;5094891;28;20047;-67
2022/06/11 01:30:52;;;;;;;7.13;3.40;;;21.40;88.50;;;;;;5094773;28;20039;-67
2022/06/11 01:34:17;;;;;;;6.90;3.47;;;21.50;88.90;;;;;;5095152;28;20043;-67
2022/06/11 01:37:27;;;;;;;8.50;3.85;;;21.50;88.30;;;;;;5095180;28;20047;-67
2022/06/11 01:40:38;;;;;;;5.47;3.53;;;21.50;88.40;;;;;;5094946;28;20502;-67
2022/06/11 01:43:45;;;;;;;6.03;3.10;;;21.60;88.00;;;;;;5094894;28;20067;-67
2022/06/11 01:46:52;;;;;;;6.75;3.67;;;21.60;88.00;;;;;;5094879;28;20039;-67
2022/06/11 01:49:56;;;;;;;5.75;3.50;;;21.60;88.50;;;;;;5094341;28;20047;-67
2022/06/11 01:53:39;;;;;;;7.60;3.58;;;21.60;88.30;;;;;;5094865;28;20510;-67
2022/06/11 01:57:14;;;;;;;8.35;3.33;;;21.60;88.10;;;;;;5093827;28;20400;-67
2022/06/11 02:00:36;;;;;;;8.13;3.17;;;21.80;87.70;;;;;;5094040;28;20071;-67
2022/06/11 02:04:09;;;;;;;7.30;3.88;;;21.80;87.30;;;;;;5094555;28;20050;-66
2022/06/11 02:07:41;;;;;;;7.50;3.40;;;21.90;87.10;;;;;;5093523;28;20043;-67
2022/06/11 02:10:54;;;;;;;7.38;3.33;;;21.90;87.00;;;;;;5094245;28;20403;-67
2022/06/11 02:14:06;;;;;;;16.30;4.22;;;21.90;87.30;;;;;;5094529;28;20051;-67
2022/06/11 02:17:15;;;;;;;7.97;2.97;;;21.90;86.50;;;;;;5093309;28;20518;-67
2022/06/11 02:20:35;;;;;;;6.20;3.10;;;21.90;86.50;;;;;;5094178;28;20055;-66
2022/06/11 02:23:44;;;;;;;4.60;3.20;;;21.70;86.80;;;;;;5094199;28;20506;-67
2022/06/11 02:26:52;;;;;;;6.25;3.30;;;21.60;87.00;;;;;;5093839;28;20039;-67
2022/06/11 02:29:57;;;;;;;5.03;3.50;;;21.60;87.10;;;;;;5092598;28;20063;-67
2022/06/11 02:33:02;;;;;;;5.80;3.88;;;21.50;87.90;;;;;;5093740;28;20055;-67
2022/06/11 02:36:17;;;;;;;5.50;3.25;;;21.40;88.20;;;;;;5069808;28;20051;-67
2022/06/11 02:39:21;;;;;;;5.22;3.08;;;21.40;88.80;;;;;;5092701;28;20047;-67
2022/06/11 02:42:27;;;;;;;9.32;3.42;;;21.40;88.30;;;;;;5093629;28;20491;-67
2022/06/11 02:45:31;;;;;;;7.68;3.67;;;21.60;87.30;;;;;;5093677;28;20047;-67
2022/06/11 02:48:35;;;;;;;7.88;3.70;;;21.60;86.60;;;;;;5093352;28;20523;-67
2022/06/11 02:51:39;;;;;;;3.10;2.70;;;21.70;85.60;;;;;;5092964;28;20059;-67
2022/06/11 02:54:45;;;;;;;8.05;3.38;;;21.80;85.40;;;;;;5093599;28;20051;-67
2022/06/11 02:57:49;;;;;;;6.32;2.65;;;21.90;85.00;;;;;;5093136;28;20062;-67
2022/06/11 03:00:53;;;;;;;7.47;2.78;;;21.90;84.60;;;;;;5092827;28;20066;-67
2022/06/11 03:03:58;;;;;;;7.40;2.60;;;22.00;84.20;;;;;;5092482;28;20054;-67
2022/06/11 03:07:02;;;;;;;4.55;2.60;;;22.00;83.90;;;;;;5093075;28;20051;-67
2022/06/11 03:10:06;;;;;;;4.10;3.00;;;22.10;83.80;;;;;;5092336;28;20079;-67
2022/06/11 03:13:10;;;;;;;3.65;2.80;;;22.10;83.60;;;;;;5093270;28;20058;-66
2022/06/11 03:16:15;;;;;;;8.15;3.47;;;22.10;83.70;;;;;;5093132;28;20043;-66
2022/06/11 03:19:20;;;;;;;4.07;3.47;;;22.20;84.30;;;;;;5093019;28;20066;-67
2022/06/11 03:22:24;;;;;;;7.57;3.20;;;22.20;84.40;;;;;;5092275;28;20043;-66
2022/06/11 03:25:28;;;;;;;6.70;3.35;;;22.20;84.50;;;;;;5092991;28;20046;-66
2022/06/11 03:28:35;;;;;;;4.93;3.17;;;22.10;84.70;;;;;;5092644;28;20058;-67
2022/06/11 03:31:38;;;;;;;8.70;3.10;;;22.10;84.90;;;;;;5092877;28;20050;-67
2022/06/11 03:34:43;;;;;;;5.28;3.10;;;22.10;85.70;;;;;;5080213;28;20058;-67
2022/06/11 03:37:47;;;;;;;7.03;3.22;;;22.00;85.70;;;;;;5092547;28;20054;-66
2022/06/11 03:40:51;;;;;;;7.70;3.42;;;21.90;86.40;;;;;;5092909;28;20047;-67
2022/06/11 03:43:55;;;;;;;12.85;4.40;;;21.90;86.60;;;;;;5092549;28;20039;-67
2022/06/11 03:47:00;;;;;;;6.20;3.47;;;21.80;87.00;;;;;;5092485;28;20043;-67
2022/06/11 03:50:08;;;;;;;8.57;3.47;;;21.70;87.50;;;;;;5091940;28;20297;-67
2022/06/11 03:53:13;;;;;;;7.63;3.17;;;21.70;87.80;;;;;;5092287;28;20494;-67
2022/06/11 03:56:17;;;;;;;6.18;3.05;;;21.60;86.20;;;;;;5091194;28;20055;-67
2022/06/11 03:59:22;;;;;;;7.55;3.15;;;21.70;86.20;;;;;;5092115;28;20051;-67
2022/06/11 04:02:26;;;;;;;6.47;3.03;;;21.80;86.20;;;;;;5091872;28;20400;-67
2022/06/11 04:05:31;;;;;;;9.38;3.53;;;21.80;85.20;;;;;;5091695;28;20507;-67
2022/06/11 04:08:36;;;;;;;8.52;3.53;;;21.90;86.20;;;;;;5091796;28;20047;-67
2022/06/11 04:11:41;;;;;;;8.23;3.75;;;21.90;87.40;;;;;;5091720;28;20043;-67
2022/06/11 04:14:48;;;;;;;6.00;3.20;;;22.10;86.80;;;;;;5091856;28;20043;-67
2022/06/11 04:17:52;;;;;;;8.40;3.53;;;22.20;86.20;;;;;;5091971;28;20072;-67
2022/06/11 04:20:56;;;;;;;4.50;3.05;;;22.30;85.70;;;;;;5091806;28;20039;-67
2022/06/11 04:24:00;;;;;;;10.63;3.45;;;22.30;85.70;;;;;;5091867;28;20502;-67
2022/06/11 04:27:08;;;;;;;9.45;3.53;;;22.30;84.60;;;;;;5091842;28;20042;-67
2022/06/11 04:30:14;;;;;;;6.97;4.70;;;22.40;83.60;;;;;;5090864;28;20055;-67
2022/06/11 04:33:18;;;;;;;7.13;4.30;;;22.50;83.50;;;;;;5091666;28;20043;-67
2022/06/11 04:36:26;;;;;;;5.93;3.78;;;22.60;82.70;;;;;;5091149;28;20502;-67
2022/06/11 04:39:32;;;;;;;5.22;3.05;;;22.70;82.00;;;;;;5091240;28;20059;-67
2022/06/11 04:42:36;;;;;;;7.47;2.78;;;22.90;81.50;;;;;;5091354;28;20046;-67
2022/06/11 04:45:40;;;;;;;7.00;2.60;;;23.20;79.80;;;;;;5091374;28;20066;-67
2022/06/11 04:48:45;;;;;;;5.85;2.85;;;23.40;79.00;;;;;;5090612;28;20050;-67
2022/06/11 04:51:50;;;;;;;5.32;3.25;;;23.40;78.90;;;;;;5091136;28;20039;-67
2022/06/11 04:54:54;;;;;;;4.60;2.80;;;23.20;79.00;;;;;;5090742;28;20534;-68
2022/06/11 04:57:58;;;;;;;6.68;2.92;;;23.10;79.60;;;;;;5091375;28;20044;-67
2022/06/11 05:01:02;;;;;;;6.72;2.90;;;23.00;79.90;;;;;;5089916;28;20055;-66
2022/06/11 05:04:07;;;;;;;4.93;2.75;;;23.00;79.70;;;;;;5090981;28;20043;-67
2022/06/11 05:07:10;;;;;;;5.97;2.47;;;22.90;79.50;;;;;;5090957;28;20043;-67
2022/06/11 05:10:17;;;;;;;3.88;2.67;;;23.00;79.10;;;;;;5091198;28;20051;-67
2022/06/11 05:13:21;;;;;;;4.20;2.67;;;23.00;78.90;;;;;;5090882;28;20043;-67
2022/06/11 05:16:25;;;;;;;8.75;3.17;;;23.00;78.80;;;;;;5090176;28;20046;-67
2022/06/11 05:19:29;;;;;;;10.40;3.35;;;23.10;79.00;;;;;;5091087;28;20043;-66
2022/06/11 05:22:33;;;;;;;6.95;3.00;;;23.10;79.00;;;;;;5090995;28;20395;-66
2022/06/11 05:25:38;;;;;;;5.97;3.38;;;23.10;78.60;;;;;;5089925;28;20042;-67
2022/06/11 05:28:43;;;;;;;8.07;3.40;;;23.30;78.50;;;;;;5090688;28;20067;-67
2022/06/11 05:31:47;;;;;;;8.73;6.28;;;23.30;78.50;;;;;;5090667;28;20043;-67
2022/06/11 05:34:51;;;;;;;15.15;3.65;;;23.30;78.20;;;;;;5090942;28;20059;-67
2022/06/11 05:37:58;;;;;;;4.93;3.13;;;23.50;78.20;;;;;;5091119;28;20043;-67
2022/06/11 05:41:03;;;;;;;8.32;3.42;;;23.80;77.30;;;;;;5090462;28;20051;-67
2022/06/11 05:44:07;;;;;;;6.30;4.60;;;24.30;76.70;;;;;;5089672;28;20047;-68
2022/06/11 05:47:16;;;;;;;7.15;4.97;;;24.70;76.10;;;;;;5090770;28;20047;-68
2022/06/11 05:50:25;;;;;;;14.48;5.70;;;25.10;75.80;;;;;;5090797;28;20047;-67
2022/06/11 05:53:32;;;;;;;10.80;4.32;;;25.50;76.20;;;;;;5090188;28;20427;-68
2022/06/11 05:56:37;;;;;;;11.95;3.60;;;25.90;75.50;;;;;;5090423;28;20042;-67
2022/06/11 05:59:49;;;;;;;8.43;3.17;;;26.20;74.00;;;;;;5090451;28;20059;-68
2022/06/11 06:02:55;;;;;;;9.90;3.55;;;26.50;73.20;;;;;;5091009;28;20112;-68
2022/06/11 06:05:59;;;;;;;9.48;3.28;;;26.70;72.90;;;;;;5093365;28;20047;-67
2022/06/11 06:09:03;;;;;;;6.68;2.90;;;27.00;71.80;;;;;;5094219;28;20054;-67
2022/06/11 06:12:08;;;;;;;7.15;3.00;;;27.20;71.80;;;;;;5093180;28;20043;-67
2022/06/11 06:15:16;;;;;;;10.68;3.15;;;27.50;72.30;;;;;;5093863;28;20051;-67
2022/06/11 06:18:21;;;;;;;6.40;2.88;;;27.60;70.90;;;;;;5094188;28;20486;-67
2022/06/11 06:21:29;;;;;;;8.70;3.47;;;27.70;70.10;;;;;;5094259;28;20055;-67
2022/06/11 06:24:33;;;;;;;9.65;3.28;;;27.60;70.30;;;;;;5093920;28;20035;-69
2022/06/11 06:27:38;;;;;;;9.80;4.15;;;27.80;70.60;;;;;;5093767;28;20058;-70
2022/06/11 06:30:42;;;;;;;4.40;3.22;;;28.00;69.60;;;;;;5093844;28;20055;-69
2022/06/11 06:33:46;;;;;;;10.07;3.10;;;28.20;68.20;;;;;;5093792;28;20589;-67
2022/06/11 06:36:50;;;;;;;7.75;2.90;;;28.30;67.70;;;;;;5092610;28;20047;-69
2022/06/11 06:39:54;;;;;;;6.53;3.47;;;28.20;67.00;;;;;;5096401;28;20063;-68
2022/06/11 06:42:58;;;;;;;5.78;2.53;;;28.30;68.10;;;;;;5093569;28;20050;-69
2022/06/11 06:46:02;;;;;;;4.63;2.25;;;28.10;65.70;;;;;;5092760;28;20036;-67
2022/06/11 06:49:06;;;;;;;7.45;2.70;;;28.00;66.10;;;;;;5093449;28;20407;-68
2022/06/11 06:52:10;;;;;;;5.30;2.45;;;27.90;67.00;;;;;;5093494;28;20054;-70
2022/06/11 06:55:15;;;;;;;5.38;2.30;;;28.00;67.40;;;;;;5093149;28;20494;-70
2022/06/11 06:58:20;;;;;;;6.38;2.20;;;27.90;66.90;;;;;;5093595;28;20066;-68
2022/06/11 07:01:26;;;;;;;9.88;2.30;;;27.70;67.00;;;;;;5092933;28;20055;-69
2022/06/11 07:04:30;;;;;;;3.92;2.25;;;27.80;67.50;;;;;;5092855;28;20051;-68
2022/06/11 07:07:35;;;;;;;4.07;2.40;;;27.70;67.00;;;;;;5093261;28;20490;-68
2022/06/11 07:10:40;;;;;;;7.55;2.80;;;27.90;66.70;;;;;;5093283;28;20051;-67
2022/06/11 07:13:44;;;;;;;6.55;2.40;;;28.10;66.30;;;;;;5092918;28;20062;-69
2022/06/11 07:16:54;;;;;;;7.53;2.40;;;28.30;66.10;;;;;;5092160;28;20083;-69
2022/06/11 07:20:04;;;;;;;11.15;2.55;;;28.70;65.20;;;;;;5092821;28;20403;-69
2022/06/11 07:23:35;;;;;;;2.92;2.17;;;28.70;64.20;;;;;;5092562;28;20043;-70
2022/06/11 07:26:44;;;;;;;7.53;2.60;;;28.50;64.70;;;;;;5092923;28;20039;-71
2022/06/11 07:29:53;;;;;;;7.57;2.30;;;28.50;65.20;;;;;;5092663;28;20411;-70
2022/06/11 07:33:09;;;;;;;7.00;2.90;;;28.40;64.60;;;;;;5080090;28;20058;-71
2022/06/11 07:36:13;;;;;;;6.25;2.78;;;28.50;65.30;;;;;;5091654;28;20043;-71
2022/06/11 07:39:17;;;;;;;11.40;2.40;;;28.50;65.40;;;;;;5092395;28;20039;-70
2022/06/11 07:42:21;;;;;;;6.95;2.40;;;28.60;65.50;;;;;;5092339;28;20059;-70
2022/06/11 07:45:25;;;;;;;6.70;2.60;;;28.60;65.80;;;;;;5092182;28;20426;-69
2022/06/11 07:48:29;;;;;;;6.65;2.60;;;28.60;65.10;;;;;;5091845;28;20051;-69
2022/06/11 07:51:33;;;;;;;9.23;2.70;;;28.60;65.20;;;;;;5092257;28;20063;-69
2022/06/11 07:54:37;;;;;;;5.35;2.42;;;28.40;65.30;;;;;;5091888;28;20055;-70
2022/06/11 07:57:41;;;;;;;6.45;2.65;;;28.70;65.00;;;;;;5092336;28;20046;-70
2022/06/11 08:00:49;;;;;;;7.25;2.53;;;28.60;64.40;;;;;;5091723;28;20519;-68
2022/06/11 08:03:53;;;;;;;8.73;2.67;;;28.50;65.10;;;;;;5092031;28;20055;-68
2022/06/11 08:06:57;;;;;;;7.00;2.60;;;28.20;65.70;;;;;;5091934;28;20055;-69
2022/06/11 08:10:02;;;;;;;7.43;2.75;;;28.50;65.50;;;;;;5091713;28;20059;-71
2022/06/11 08:13:08;;;;;;;11.77;2.90;;;28.60;65.60;;;;;;5092093;28;20058;-70
2022/06/11 08:16:12;;;;;;;7.57;2.55;;;28.50;65.50;;;;;;5091770;28;20055;-68
2022/06/11 08:19:16;;;;;;;13.48;2.72;;;28.50;65.60;;;;;;5091944;28;20047;-69
2022/06/11 08:22:20;;;;;;;11.15;3.10;;;28.50;65.00;;;;;;5091713;28;20050;-68
2022/06/11 08:25:25;;;;;;;10.50;2.80;;;28.40;65.10;;;;;;5091840;28;20387;-69
2022/06/11 08:28:29;;;;;;;4.43;2.60;;;28.40;65.40;;;;;;5090913;28;20059;-68
2022/06/11 08:31:33;;;;;;;7.55;3.15;;;28.20;65.20;;;;;;5091679;28;20046;-69
2022/06/11 08:34:39;;;;;;;13.20;2.60;;;28.40;65.10;;;;;;5091343;28;20055;-69
2022/06/11 08:37:43;;;;;;;7.07;3.05;;;28.30;65.10;;;;;;5090681;28;20498;-68
2022/06/11 08:40:50;;;;;;;8.15;2.88;;;28.10;66.00;;;;;;5091408;28;20047;-69
2022/06/11 08:44:08;;;;;;;10.05;2.63;;;28.10;65.70;;;;;;5091461;28;20379;-69
2022/06/11 08:47:15;;;;;;;7.03;2.78;;;28.10;66.10;;;;;;5090623;28;20047;-68
2022/06/11 08:50:30;;;;;;;7.80;3.00;;;28.40;66.50;;;;;;5090840;28;20067;-69
2022/06/11 08:53:38;;;;;;;6.75;2.65;;;28.30;65.00;;;;;;5091487;28;20047;-68
2022/06/11 08:57:02;;;;;;;5.35;2.95;;;28.40;65.30;;;;;;5091274;28;20046;-69
2022/06/11 09:00:16;;;;;;;12.88;2.97;;;28.40;64.90;;;;;;5090611;28;20051;-69
2022/06/11 09:03:35;;;;;;;7.70;3.13;;;28.50;66.40;;;;;;5091131;28;20047;-68
2022/06/11 09:07:06;;;;;;;7.05;2.80;;;28.50;65.50;;;;;;5091131;28;20047;-68
2022/06/11 09:11:08;;;;;;;5.00;2.75;;;28.40;65.10;;;;;;5091045;28;20355;-68
2022/06/11 09:14:41;;;;;;;6.82;2.78;;;28.50;65.50;;;;;;5088490;28;20050;-68
2022/06/11 09:17:56;;;;;;;5.45;2.53;;;28.50;65.00;;;;;;5088763;28;20039;-68
2022/06/11 09:21:21;;;;;;;8.15;2.80;;;28.70;65.10;;;;;;5091018;28;20039;-68
2022/06/11 09:24:45;;;;;;;2.83;2.50;;;28.70;64.50;;;;;;5090835;28;20046;-69
2022/06/11 09:27:57;;;;;;;5.97;2.65;;;29.00;63.90;;;;;;5090170;28;20055;-68
2022/06/11 09:31:10;;;;;;;9.35;2.75;;;29.10;64.50;;;;;;5090791;28;20059;-68
2022/06/11 09:34:55;;;;;;;10.90;2.78;;;29.20;64.60;;;;;;5090411;28;20043;-68
2022/06/11 09:38:10;;;;;;;9.80;3.38;;;29.00;65.00;;;;;;5090957;28;20043;-68
2022/06/11 09:41:38;;;;;;;7.68;2.90;;;29.00;64.60;;;;;;5093809;28;20054;-67
2022/06/11 09:44:56;;;;;;;5.22;3.00;;;29.00;65.10;;;;;;5094632;28;20036;-68
2022/06/11 09:48:09;;;;;;;12.40;3.10;;;29.10;64.80;;;;;;5094532;28;20039;-70
2022/06/11 09:51:38;;;;;;;14.13;3.10;;;28.80;64.40;;;;;;5094638;28;20055;-68
2022/06/11 09:54:58;;;;;;;7.22;3.13;;;29.00;65.80;;;;;;5094415;28;20289;-68
2022/06/11 09:58:04;;;;;;;;;;;29.20;65.10;;;;;;5094964;28;20510;-68
2022/06/11 10:01:42;;;;;;;11.50;2.78;;;29.20;64.60;;;;;;5094013;28;19927;-70
2022/06/11 10:04:48;;;;;;;5.45;2.63;;;29.10;63.20;;;;;;5094277;28;20043;-67
2022/06/11 10:07:59;;;;;;;3.95;2.70;;;29.10;62.90;;;;;;5094409;28;20051;-68
2022/06/11 10:11:10;;;;;;;8.65;2.90;;;28.90;64.20;;;;;;5093379;28;20047;-70
2022/06/11 10:14:29;;;;;;;9.25;2.90;;;29.10;62.50;;;;;;5094068;28;20039;-69
2022/06/11 10:18:00;;;;;;;4.45;3.05;;;29.10;63.30;;;;;;5093783;28;20047;-68
2022/06/11 10:21:13;;;;;;;5.38;2.72;;;29.20;62.90;;;;;;5093884;28;20062;-69
2022/06/11 10:24:19;;;;;;;5.75;3.17;;;29.40;63.10;;;;;;5093850;28;20051;-68
2022/06/11 10:27:26;;;;;;;7.28;3.35;;;29.50;62.40;;;;;;5093140;28;20036;-68
2022/06/11 10:30:44;;;;;;;6.10;3.33;;;29.50;62.80;;;;;;5093791;28;20075;-68
2022/06/11 10:33:57;;;;;;;7.93;3.22;;;29.40;63.50;;;;;;5093827;28;20043;-68
2022/06/11 10:37:18;;;;;;;5.80;3.35;;;29.30;62.90;;;;;;5093793;28;20047;-69
2022/06/11 10:40:37;;;;;;;6.85;3.60;;;29.10;62.60;;;;;;5094074;28;20039;-69
2022/06/11 10:43:51;;;;;;;6.63;3.08;;;29.00;63.00;;;;;;5093315;28;20387;-68
2022/06/11 10:46:56;;;;;;;6.07;2.50;;;29.00;63.20;;;;;;5092933;28;20047;-68
2022/06/11 10:50:08;;;;;;;10.68;3.00;;;29.20;63.50;;;;;;5093460;28;20100;-69
2022/06/11 10:53:19;;;;;;;5.90;2.67;;;29.20;63.20;;;;;;5092895;28;20035;-69
2022/06/11 10:56:27;;;;;;;;;;;29.10;63.80;;;;;;5094093;28;20062;-70
2022/06/11 10:59:44;;;;;;;7.65;2.90;;;29.10;62.80;;;;;;5092558;28;20291;-69
2022/06/11 11:02:51;;;;;;;19.25;3.20;;;29.00;64.00;;;;;;5093106;28;20247;-67
2022/06/11 11:06:03;;;;;;;5.15;2.70;;;29.10;63.80;;;;;;5092971;28;20589;-69
2022/06/11 11:09:12;;;;;;;5.18;2.78;;;28.90;64.80;;;;;;5093299;28;20055;-69
2022/06/11 11:12:32;;;;;;;8.60;2.72;;;29.00;63.80;;;;;;5093083;28;20039;-69
2022/06/11 11:15:43;;;;;;;15.48;3.30;;;29.00;64.90;;;;;;5093313;28;20494;-68
2022/06/11 11:18:53;;;;;;;5.95;2.55;;;29.10;63.80;;;;;;5092863;28;20043;-69
2022/06/11 11:22:18;;;;;;;6.25;2.42;;;29.00;64.20;;;;;;5092866;28;20043;-68
2022/06/11 11:25:29;;;;;;;9.20;3.35;;;29.00;63.10;;;;;;5092666;28;20090;-69
2022/06/11 11:28:41;;;;;;;;;;;29.00;63.60;;;;;;5093046;28;20503;-68
2022/06/11 11:31:55;;;;;;;5.88;2.55;;;29.00;62.10;;;;;;5092936;28;19965;-69
2022/06/11 11:35:28;;;;;;;8.05;2.88;;;28.90;62.90;;;;;;5092947;28;20399;-69
2022/06/11 11:38:32;;;;;;;6.38;2.95;;;29.00;63.50;;;;;;5092752;28;20051;-68
2022/06/11 11:41:37;;;;;;;9.07;3.28;;;29.10;63.90;;;;;;5092618;28;20047;-68
2022/06/11 11:44:50;;;;;;;5.25;2.90;;;29.20;64.10;;;;;;5092549;28;20051;-68
2022/06/11 11:48:04;;;;;;;8.15;2.67;;;29.30;62.90;;;;;;5092376;28;20043;-68
2022/06/11 11:51:33;;;;;;;7.18;2.70;;;29.20;63.20;;;;;;5092107;28;20535;-69
2022/06/11 11:54:47;;;;;;;7.03;2.60;;;29.30;60.90;;;;;;5092744;28;20039;-70
2022/06/11 11:58:01;;;;;;;6.28;2.60;;;29.40;61.30;;;;;;5092198;28;20047;-69
2022/06/11 12:01:08;;;;;;;5.18;2.92;;;29.50;62.30;;;;;;5092016;28;20063;-69
2022/06/11 12:04:35;;;;;;;4.20;2.30;;;29.50;62.10;;;;;;5091991;28;20043;-70
2022/06/11 12:07:47;;;;;;;2.90;2.17;;;29.40;61.50;;;;;;5092059;28;20055;-69
2022/06/11 12:10:55;;;;;;;5.13;2.22;;;29.40;61.10;;;;;;5091791;28;20055;-70
2022/06/11 12:14:30;;;;;;;3.58;2.40;;;29.30;60.00;;;;;;5092091;28;20051;-70
2022/06/11 12:17:45;;;;;;;4.07;2.08;;;29.40;59.60;;;;;;5092022;28;20047;-69
2022/06/11 12:20:56;;;;;;;4.78;2.72;;;29.50;62.00;;;;;;5091285;28;20047;-70
2022/06/11 12:24:08;;;;;;;6.05;2.67;;;29.40;62.60;;;;;;5091522;28;20529;-69
2022/06/11 12:27:35;;;;;;;6.65;2.90;;;29.20;63.00;;;;;;5091844;28;20046;-70
2022/06/11 12:30:40;;;;;;;7.30;3.00;;;29.10;63.30;;;;;;5093111;28;20047;-70
2022/06/11 12:33:46;;;;;;;13.60;2.55;;;29.20;63.10;;;;;;5091745;28;20462;-72
2022/06/11 12:37:09;;;;;;;4.72;2.65;;;29.20;61.10;;;;;;5091065;28;20059;-70
2022/06/11 12:40:30;;;;;;;5.85;2.65;;;29.20;62.60;;;;;;5091790;28;20067;-71
2022/06/11 12:43:43;;;;;;;4.97;2.87;;;29.30;62.30;;;;;;5091655;28;20047;-71
2022/06/11 12:47:19;;;;;;;3.35;2.70;;;29.30;61.70;;;;;;5091638;28;20117;-71
2022/06/11 12:50:42;;;;;;;8.60;2.67;;;29.30;61.90;;;;;;5091240;28;20051;-69
2022/06/11 12:54:02;;;;;;;7.95;2.40;;;29.40;60.60;;;;;;5090812;28;20047;-72
2022/06/11 12:57:05;;;;;;;6.88;2.60;;;29.50;60.10;;;;;;5091256;28;20046;-71
2022/06/11 13:00:21;;;;;;;5.80;2.42;;;29.60;61.80;;;;;;5090899;28;20055;-71
2022/06/11 13:03:55;;;;;;;5.75;3.08;;;29.60;61.90;;;;;;5091224;28;20059;-71
2022/06/11 13:07:17;;;;;;;3.92;2.50;;;29.60;60.30;;;;;;5078569;28;20038;-70
2022/06/11 13:10:42;;;;;;;4.97;2.40;;;29.60;62.20;;;;;;5090032;28;20068;-71
2022/06/11 13:14:34;;;;;;;8.13;2.90;;;29.50;61.90;;;;;;5090288;28;20039;-71
2022/06/11 13:17:54;;;;;;;4.95;2.30;;;29.50;63.10;;;;;;5090789;28;20068;-71
2022/06/11 13:21:45;;;;;;;6.88;2.70;;;29.50;62.30;;;;;;5091093;28;20051;-71
2022/06/11 13:25:19;;;;;;;9.20;2.83;;;29.40;62.40;;;;;;5091272;28;20044;-71
2022/06/11 13:28:23;;;;;;;4.70;2.53;;;29.40;62.20;;;;;;5090206;28;20051;-71
2022/06/11 13:31:42;;;;;;;11.68;2.78;;;29.30;62.30;;;;;;5089974;28;20051;-70
2022/06/11 13:35:08;;;;;;;8.10;3.17;;;29.30;63.10;;;;;;5090521;28;20036;-71
2022/06/11 13:38:18;;;;;;;11.52;3.08;;;29.30;63.90;;;;;;5090682;28;20384;-71
2022/06/11 13:41:43;;;;;;;12.40;3.05;;;29.20;64.40;;;;;;5090578;28;20093;-70
2022/06/11 13:44:59;;;;;;;8.23;2.72;;;29.00;64.40;;;;;;5090029;28;20043;-70
2022/06/11 13:48:18;;;;;;;9.82;2.90;;;29.00;64.50;;;;;;5090818;28;20503;-70
2022/06/11 13:51:28;;;;;;;25.13;3.63;;;29.20;64.90;;;;;;5090397;28;20059;-70
2022/06/11 13:58:28;;;;;;;6.70;3.28;;;29.00;64.60;;;;;;5090405;28;20051;-71
2022/06/11 14:01:38;;;;;;;;;;;29.00;64.10;;;;;;5091295;28;20491;-70
2022/06/11 14:04:56;;;;;;;9.80;3.72;;;28.90;64.30;;;;;;5090917;28;19927;-70
2022/06/11 14:08:00;;;;;;;12.05;3.15;;;28.80;64.60;;;;;;5090674;28;20035;-69
2022/06/11 14:11:44;;;;;;;13.27;3.60;;;28.80;64.30;;;;;;5090526;28;20058;-71
2022/06/11 14:15:14;;;;;;;6.85;3.10;;;28.80;64.20;;;;;;5089963;28;20035;-70
2022/06/11 14:18:22;;;;;;;34.03;3.97;;;28.80;64.50;;;;;;5090801;28;20047;-70
2022/06/11 14:21:38;;;;;;;9.43;3.00;;;28.80;64.20;;;;;;5090685;28;20047;-71
2022/06/11 14:24:42;;;;;;;12.70;3.60;;;28.70;64.40;;;;;;5090026;28;20141;-71
2022/06/11 14:27:47;;;;;;;21.98;3.53;;;28.70;64.60;;;;;;5091155;28;20047;-70
2022/06/11 14:30:53;;;;;;;8.27;3.40;;;28.80;64.50;;;;;;5093933;28;20055;-70
2022/06/11 14:34:13;;;;;;;7.22;3.38;;;28.80;64.30;;;;;;5093600;28;20039;-72
2022/06/11 14:37:26;;;;;;;8.55;3.00;;;28.80;63.60;;;;;;5093907;28;20399;-70
2022/06/11 14:40:33;;;;;;;8.23;3.33;;;28.80;63.60;;;;;;5092866;28;20043;-71
2022/06/11 14:43:53;;;;;;;7.28;3.00;;;28.80;64.50;;;;;;5093605;28;20760;-71
2022/06/11 14:46:59;;;;;;;13.00;3.22;;;28.80;63.50;;;;;;5093658;28;20415;-70
2022/06/11 14:50:24;;;;;;;9.95;3.25;;;28.80;63.60;;;;;;5093467;28;20051;-71
2022/06/11 14:53:43;;;;;;;6.78;3.35;;;28.80;63.20;;;;;;5093842;28;20047;-70
2022/06/11 14:57:12;;;;;;;15.70;3.83;;;28.80;63.30;;;;;;5093941;28;20055;-70
2022/06/11 15:00:28;;;;;;;7.78;3.50;;;28.80;62.40;;;;;;5093072;28;20055;-71
2022/06/11 15:03:36;;;;;;;8.77;3.22;;;28.80;62.00;;;;;;5093200;28;20048;-70
2022/06/11 15:06:48;;;;;;;16.13;3.53;;;28.80;62.30;;;;;;5093558;28;20051;-69
2022/06/11 15:10:32;;;;;;;11.18;4.07;;;28.90;61.60;;;;;;5092932;28;20051;-70
2022/06/11 15:14:03;;;;;;;8.10;3.90;;;28.90;61.90;;;;;;5092865;28;20039;-70
2022/06/11 15:17:16;;;;;;;16.05;3.72;;;28.90;61.30;;;;;;5092472;28;20068;-70
2022/06/11 15:20:31;;;;;;;7.57;3.70;;;28.90;61.60;;;;;;5092628;28;20039;-68
2022/06/11 15:23:42;;;;;;;10.85;3.75;;;28.90;61.20;;;;;;5092593;28;20046;-69
2022/06/11 15:26:56;;;;;;;7.80;3.75;;;29.00;60.60;;;;;;5092663;28;20051;-70
2022/06/11 15:30:35;;;;;;;6.63;3.65;;;29.00;60.00;;;;;;5092290;28;20396;-70
2022/06/11 15:33:39;;;;;;;9.65;3.63;;;29.00;60.10;;;;;;5091619;28;20047;-71
2022/06/11 15:37:01;;;;;;;4.53;3.30;;;28.90;60.30;;;;;;5092270;28;20059;-71
2022/06/11 15:40:20;;;;;;;12.45;4.13;;;28.80;59.70;;;;;;5092027;28;20079;-71
2022/06/11 15:43:39;;;;;;;8.35;3.70;;;28.80;60.30;;;;;;5092215;28;20039;-71
2022/06/11 15:47:01;;;;;;;8.70;3.38;;;28.80;60.10;;;;;;5091915;28;20475;-70
2022/06/11 15:50:11;;;;;;;9.18;3.60;;;28.80;59.70;;;;;;5092189;28;20051;-71
2022/06/11 15:53:24;;;;;;;4.70;3.45;;;28.90;59.20;;;;;;5091597;28;20043;-71
2022/06/11 15:56:32;;;;;;;9.88;3.80;;;28.90;59.00;;;;;;5092219;28;20047;-70
2022/06/11 15:59:36;;;;;;;12.00;3.95;;;28.80;59.50;;;;;;5091599;28;20055;-71
2022/06/11 16:02:40;;;;;;;6.78;3.47;;;28.80;60.10;;;;;;5091726;28;20050;-71
2022/06/11 16:05:51;;;;;;;5.07;3.10;;;28.70;60.10;;;;;;5092161;28;20039;-70
2022/06/11 16:09:05;;;;;;;8.63;3.50;;;28.70;59.90;;;;;;5091202;28;20391;-71
2022/06/11 16:12:20;;;;;;;8.15;3.88;;;28.60;60.00;;;;;;5090905;28;20054;-71
2022/06/11 16:15:32;;;;;;;18.90;3.90;;;28.60;60.70;;;;;;5090817;28;20064;-70
2022/06/11 16:18:41;;;;;;;7.07;3.28;;;28.50;60.30;;;;;;5091585;28;20047;-71
2022/06/11 16:22:01;;;;;;;9.95;3.67;;;28.50;60.70;;;;;;5091428;28;20035;-70
2022/06/11 16:25:10;;;;;;;5.88;3.75;;;28.50;60.80;;;;;;5091450;28;20050;-69
2022/06/11 16:28:36;;;;;;;4.75;2.70;;;28.50;60.70;;;;;;5091325;28;20498;-69
2022/06/11 16:31:41;;;;;;;7.72;3.05;;;28.50;60.50;;;;;;5091417;28;20502;-71
2022/06/11 16:34:49;;;;;;;4.40;2.90;;;28.40;60.30;;;;;;5091050;28;20043;-71
2022/06/11 16:37:53;;;;;;;4.78;2.75;;;28.40;60.30;;;;;;5091120;28;20051;-69
2022/06/11 16:41:15;;;;;;;4.90;2.83;;;28.40;59.60;;;;;;5091392;28;20043;-66